createdAt,value
2023-04-14T00:01:35.765Z,101323.73
2023-04-14T00:04:05.270Z,101326.36
2023-04-14T00:06:33.883Z,101339.50
2023-04-14T00:09:02.330Z,101346.34
2023-04-14T00:11:31.083Z,101351.77
2023-04-14T00:14:01.463Z,101359.67
2023-04-14T00:16:32.948Z,101364.25
2023-04-14T00:19:02.816Z,101371.77
2023-04-14T00:21:31.913Z,101380.73
2023-04-14T00:24:03.081Z,101389.18
2023-04-14T00:26:34.583Z,101393.06
2023-04-14T00:29:03.029Z,101399.41
2023-04-14T00:31:35.659Z,101406.09
2023-04-14T00:34:06.208Z,101405.20
2023-04-14T00:36:35.183Z,101408.20
2023-04-14T00:39:05.060Z,101406.95
2023-04-14T00:41:36.591Z,101410.11
2023-04-14T00:44:05.610Z,101409.75
2023-04-14T00:46:33.908Z,101409.75
2023-04-14T00:49:02.837Z,101408.35
2023-04-14T00:51:32.487Z,101406.09
2023-04-14T00:54:02.963Z,101407.49
2023-04-14T00:56:31.931Z,101411.90
2023-04-14T00:59:02.761Z,101413.53
2023-04-14T01:01:31.825Z,101415.67
2023-04-14T01:04:01.013Z,101420.44
2023-04-14T01:06:30.179Z,101422.22
2023-04-14T01:08:58.686Z,101425.05
2023-04-14T01:12:09.246Z,101425.05
2023-04-14T01:14:59.876Z,101435.80
2023-04-14T01:17:36.948Z,101436.70
2023-04-14T01:20:17.684Z,101439.16
2023-04-14T01:23:13.934Z,101442.17
2023-04-14T01:25:56.967Z,101443.59
2023-04-14T01:29:01.751Z,101447.30
2023-04-14T01:31:38.452Z,101448.00
2023-04-14T01:34:11.853Z,101442.41
2023-04-14T01:36:57.132Z,101448.58
2023-04-14T01:39:27.864Z,101453.73
2023-04-14T01:41:58.469Z,101451.68
2023-04-14T01:44:27.093Z,101454.23
2023-04-14T01:46:57.667Z,101459.94
2023-04-14T01:49:27.003Z,101463.51
2023-04-14T01:51:56.917Z,101454.55
2023-04-14T01:54:25.633Z,101445.24
2023-04-14T01:56:53.979Z,101447.39
2023-04-14T01:59:23.134Z,101457.80
2023-04-14T02:01:51.557Z,101460.64
2023-04-14T02:04:21.832Z,101464.86
2023-04-14T02:08:49.735Z,101448.56
2023-04-14T02:11:19.156Z,101525.01
2023-04-14T02:13:48.836Z,101515.52
2023-04-14T02:16:18.234Z,101513.06
2023-04-14T02:18:46.948Z,101505.52
2023-04-14T02:21:19.008Z,101507.66
2023-04-14T02:23:48.119Z,101511.72
2023-04-14T02:26:18.774Z,101507.52
2023-04-14T02:29:09.733Z,101520.36
2023-04-14T02:31:42.284Z,101529.89
2023-04-14T02:34:12.579Z,101527.98
2023-04-14T02:36:58.356Z,101531.88
2023-04-14T02:39:32.427Z,101538.75
2023-04-14T02:42:06.105Z,101543.89
2023-04-14T02:44:36.447Z,101546.54
2023-04-14T02:47:07.871Z,101550.25
2023-04-14T02:49:42.918Z,101558.31
2023-04-14T02:52:12.861Z,101569.05
2023-04-14T02:54:42.747Z,101570.98
2023-04-14T02:57:11.368Z,101577.50
2023-04-14T02:59:42.602Z,101587.38
2023-04-14T03:02:12.842Z,101591.27
2023-04-14T03:04:45.730Z,101596.36
2023-04-14T03:07:21.932Z,101602.20
2023-04-14T03:09:50.960Z,101608.35
2023-04-14T03:12:20.625Z,101613.98
2023-04-14T03:14:49.357Z,101619.79
2023-04-14T03:17:20.384Z,101624.17
2023-04-14T03:19:49.677Z,101631.75
2023-04-14T03:22:19.890Z,101633.70
2023-04-14T03:24:48.543Z,101639.69
2023-04-14T03:27:26.411Z,101649.55
2023-04-14T03:29:57.027Z,101655.03
2023-04-14T03:32:37.140Z,101654.37
2023-04-14T03:35:07.282Z,101658.61
2023-04-14T03:37:38.688Z,101662.14
2023-04-14T03:40:08.713Z,101668.14
2023-04-14T03:42:39.844Z,101681.36
2023-04-14T03:45:09.525Z,101691.23
2023-04-14T03:47:40.733Z,101692.10
2023-04-14T03:50:10.554Z,101692.09
2023-04-14T03:52:38.821Z,101698.05
2023-04-14T03:55:08.685Z,101703.69
2023-04-14T03:57:38.612Z,101707.36
2023-04-14T04:00:09.456Z,101709.30
2023-04-14T04:02:47.874Z,101717.00
2023-04-14T04:05:16.935Z,101716.13
2023-04-14T04:07:45.582Z,101730.00
2023-04-14T04:10:16.632Z,101746.14
2023-04-14T04:12:45.192Z,101755.80
2023-04-14T04:15:22.245Z,101769.65
2023-04-14T04:17:51.497Z,101770.69
2023-04-14T04:20:19.934Z,101775.80
2023-04-14T04:22:49.980Z,101779.48
2023-04-14T04:25:18.735Z,101789.84
2023-04-14T04:27:53.331Z,101793.20
2023-04-14T04:30:23.073Z,101793.58
2023-04-14T04:32:52.360Z,101796.08
2023-04-14T04:35:20.635Z,101795.76
2023-04-14T04:37:48.858Z,101804.16
2023-04-14T04:40:17.473Z,101807.83
2023-04-14T04:42:48.019Z,101814.62
2023-04-14T04:45:47.256Z,101823.70
2023-04-14T04:48:15.998Z,101837.56
2023-04-14T04:50:45.504Z,101848.09
2023-04-14T04:53:14.259Z,101853.18
2023-04-14T04:55:43.512Z,101852.87
2023-04-14T04:58:12.125Z,101852.93
2023-04-14T05:00:40.396Z,101855.42
2023-04-14T05:03:19.623Z,101858.58
2023-04-14T05:05:47.910Z,101858.41
2023-04-14T05:08:16.497Z,101860.19
2023-04-14T05:10:45.040Z,101867.46
2023-04-14T05:13:13.287Z,101874.35
2023-04-14T05:15:41.506Z,101871.38
2023-04-14T05:18:09.797Z,101866.13
2023-04-14T05:20:38.425Z,101862.96
2023-04-14T05:23:06.919Z,101867.86
2023-04-14T05:25:35.802Z,101875.92
2023-04-14T05:28:05.118Z,101882.40
2023-04-14T05:30:33.417Z,101886.03
2023-04-14T05:33:01.952Z,101893.70
2023-04-14T05:35:31.321Z,101901.88
2023-04-14T05:37:59.922Z,101920.05
2023-04-14T05:40:30.269Z,101936.48
2023-04-14T05:42:59.428Z,101951.92
2023-04-14T05:45:27.952Z,101963.48
2023-04-14T05:47:57.848Z,101968.38
2023-04-14T05:50:27.163Z,101977.02
2023-04-14T05:52:55.735Z,101974.61
2023-04-14T05:55:25.608Z,101968.16
2023-04-14T05:57:54.194Z,101962.42
2023-04-14T06:00:25.302Z,101960.91
2023-04-14T06:02:55.834Z,101952.02
2023-04-14T06:05:25.452Z,101944.13
2023-04-14T06:07:54.068Z,101952.95
2023-04-14T06:10:27.563Z,101955.81
2023-04-14T06:12:57.317Z,101947.07
2023-04-14T06:15:28.464Z,101949.73
2023-04-14T06:18:00.229Z,101948.34
2023-04-14T06:20:31.869Z,101940.13
2023-04-14T06:23:01.370Z,101941.36
2023-04-14T06:25:29.828Z,101938.54
2023-04-14T06:28:03.793Z,101935.02
2023-04-14T06:30:32.529Z,101934.84
2023-04-14T06:33:04.612Z,101936.77
2023-04-14T06:35:35.315Z,101937.45
2023-04-14T06:38:03.570Z,101939.91
2023-04-14T06:40:32.156Z,101939.41
2023-04-14T06:43:00.451Z,101941.35
2023-04-14T06:45:31.234Z,101940.65
2023-04-14T06:48:00.116Z,101936.77
2023-04-14T06:50:28.481Z,101939.02
2023-04-14T06:52:57.478Z,101946.55
2023-04-14T06:55:25.842Z,101952.34
2023-04-14T06:57:58.109Z,101953.00
2023-04-14T07:00:26.835Z,101955.66
2023-04-14T07:02:55.335Z,101957.98
2023-04-14T07:05:23.966Z,101960.30
2023-04-14T07:07:52.776Z,101955.38
2023-04-14T07:10:21.219Z,101956.79
2023-04-14T07:12:49.934Z,101957.14
2023-04-14T07:15:19.865Z,101953.84
2023-04-14T07:17:48.932Z,101951.42
2023-04-14T07:20:17.324Z,101950.55
2023-04-14T07:22:45.832Z,101942.65
2023-04-14T07:25:14.433Z,101940.23
2023-04-14T07:27:49.915Z,101936.56
2023-04-14T07:30:29.940Z,101923.42
2023-04-14T07:33:01.028Z,101919.75
2023-04-14T07:35:29.565Z,101911.67
2023-04-14T07:37:58.454Z,101902.38
2023-04-14T07:40:27.320Z,101901.35
2023-04-14T07:42:55.765Z,101900.45
2023-04-14T07:45:24.430Z,101900.80
2023-04-14T07:47:53.834Z,101900.80
2023-04-14T07:50:24.008Z,101899.54
2023-04-14T07:52:52.240Z,101900.58
2023-04-14T07:55:20.901Z,101899.71
2023-04-14T07:57:51.851Z,101897.27
2023-04-14T08:00:20.443Z,101897.25
2023-04-14T08:02:49.699Z,101893.38
2023-04-14T08:05:18.416Z,101896.55
2023-04-14T08:07:49.644Z,101888.80
2023-04-14T08:10:18.301Z,101892.34
2023-04-14T08:12:47.245Z,101893.40
2023-04-14T08:15:16.535Z,101890.61
2023-04-14T08:17:45.317Z,101886.24
2023-04-14T08:20:14.347Z,101885.56
2023-04-14T08:22:43.558Z,101883.98
2023-04-14T08:25:12.605Z,101881.52
2023-04-14T08:27:41.635Z,101880.29
2023-04-14T08:30:11.519Z,101890.09
2023-04-14T08:32:42.169Z,101893.77
2023-04-14T08:35:37.567Z,101892.91
2023-04-14T08:38:01.513Z,101898.17
2023-04-14T08:40:42.756Z,101892.38
2023-04-14T08:43:14.547Z,101895.19
2023-04-14T08:45:43.930Z,101892.73
2023-04-14T08:48:13.098Z,101890.10
2023-04-14T08:50:46.177Z,101891.45
2023-04-14T08:53:18.788Z,101903.19
2023-04-14T08:55:48.705Z,101910.16
2023-04-14T08:58:17.430Z,101914.77
2023-04-14T09:00:49.380Z,101919.82
2023-04-14T09:03:19.246Z,101926.13
2023-04-14T09:05:48.113Z,101929.23
2023-04-14T09:08:16.273Z,101949.51
2023-04-14T09:10:45.432Z,101963.95
2023-04-14T09:13:15.574Z,101974.92
2023-04-14T09:15:43.878Z,101983.81
2023-04-14T09:18:14.665Z,101995.53
2023-04-14T09:20:42.959Z,102008.31
2023-04-14T09:23:11.923Z,102013.52
2023-04-14T09:25:44.243Z,102015.60
2023-04-14T09:28:12.684Z,102016.64
2023-04-14T09:30:41.833Z,102012.80
2023-04-14T09:35:55.502Z,102009.75
2023-04-14T09:38:35.799Z,102000.84
2023-04-14T09:41:07.928Z,101990.20
2023-04-14T09:43:37.051Z,101974.63
2023-04-14T09:46:07.923Z,101963.09
2023-04-14T09:48:41.116Z,101962.05
2023-04-14T09:51:14.219Z,101960.81
2023-04-14T09:53:48.063Z,101966.41
2023-04-14T09:56:17.910Z,101969.34
2023-04-14T09:58:50.666Z,101973.48
2023-04-14T10:01:19.748Z,101976.57
2023-04-14T10:03:49.758Z,101987.03
2023-04-14T10:06:20.582Z,101995.17
2023-04-14T10:08:53.612Z,101994.56
2023-04-14T10:11:35.479Z,102000.42
2023-04-14T10:14:05.532Z,102006.85
2023-04-14T10:16:34.433Z,102002.08
2023-04-14T10:19:03.938Z,101997.74
2023-04-14T10:21:36.761Z,101991.26
2023-04-14T10:24:05.767Z,101984.80
2023-04-14T10:26:36.311Z,101983.76
2023-04-14T10:29:06.255Z,101983.77
2023-04-14T10:31:37.119Z,101978.73
2023-04-14T10:34:13.882Z,101974.88
2023-04-14T10:36:43.567Z,101983.45
2023-04-14T10:39:12.455Z,101989.55
2023-04-14T10:41:44.085Z,101995.14
2023-04-14T10:44:32.466Z,101995.48
2023-04-14T10:47:02.586Z,102000.86
2023-04-14T10:49:31.747Z,102005.73
2023-04-14T10:52:05.159Z,102013.92
2023-04-14T10:54:54.587Z,102029.88
2023-04-14T10:57:23.864Z,102032.66
2023-04-14T11:00:00.235Z,102038.60
2023-04-14T11:02:31.679Z,102036.28
2023-04-14T11:05:09.409Z,102030.84
2023-04-14T11:07:46.350Z,102027.63
2023-04-14T11:10:21.726Z,102022.85
2023-04-14T11:13:13.021Z,102024.23
2023-04-14T11:15:46.936Z,102024.23
2023-04-14T11:18:17.684Z,102022.48
2023-04-14T11:20:46.057Z,102012.83
2023-04-14T11:23:19.416Z,102001.83
2023-04-14T11:25:48.785Z,101985.86
2023-04-14T11:28:18.247Z,101982.90
2023-04-14T11:30:47.093Z,101981.55
2023-04-14T11:33:15.607Z,101972.62
2023-04-14T11:35:43.915Z,101963.19
2023-04-14T11:38:12.305Z,101951.31
2023-04-14T11:40:40.849Z,101946.50
2023-04-14T11:43:10.390Z,101940.73
2023-04-14T11:45:48.009Z,101935.98
2023-04-14T11:48:17.938Z,101927.88
2023-04-14T11:50:47.835Z,101924.66
2023-04-14T11:53:17.741Z,101921.65
2023-04-14T11:55:50.064Z,101923.70
2023-04-14T11:58:24.011Z,101928.77
2023-04-14T12:00:55.643Z,101921.75
2023-04-14T12:03:37.138Z,101922.11
2023-04-14T12:06:05.824Z,101918.08
2023-04-14T12:08:34.218Z,101912.32
2023-04-14T12:11:16.564Z,101903.96
2023-04-14T12:13:46.710Z,101895.50
2023-04-14T12:16:16.147Z,101882.91
2023-04-14T12:18:47.463Z,101876.65
2023-04-14T12:21:19.236Z,101871.77
2023-04-14T12:23:50.797Z,101867.17
2023-04-14T12:26:25.786Z,101870.83
2023-04-14T12:28:57.974Z,101870.60
2023-04-14T12:31:32.383Z,101867.89
2023-04-14T12:34:04.072Z,101875.37
2023-04-14T12:36:48.714Z,101874.80
2023-04-14T12:39:22.569Z,101879.45
2023-04-14T12:41:50.802Z,101880.38
2023-04-14T12:44:20.865Z,101885.17
2023-04-14T12:46:51.040Z,101892.78
2023-04-14T12:49:33.129Z,101884.96
2023-04-14T12:52:01.350Z,101868.54
2023-04-14T12:54:50.293Z,101879.40
2023-04-14T12:57:23.717Z,101906.49
2023-04-14T12:59:53.025Z,101902.19
2023-04-14T13:02:22.714Z,101897.46
2023-04-14T13:04:51.369Z,101940.73
2023-04-14T13:07:20.477Z,101933.24
2023-04-14T13:09:48.881Z,101912.98
2023-04-14T13:19:55.662Z,101882.27
2023-04-14T13:22:25.156Z,101928.80
2023-04-14T13:24:53.513Z,101899.08
2023-04-14T13:27:21.956Z,101882.02
2023-04-14T13:29:54.798Z,101865.77
2023-04-14T13:32:23.961Z,101849.39
2023-04-14T13:34:52.837Z,101833.34
2023-04-14T13:37:22.460Z,101821.33
2023-04-14T13:39:51.079Z,101811.23
2023-04-14T13:42:19.560Z,101795.11
2023-04-14T13:44:48.358Z,101785.65
2023-04-14T13:47:19.045Z,101783.58
2023-04-14T13:49:47.592Z,101779.01
2023-04-14T13:52:15.916Z,101771.51
2023-04-14T13:54:46.617Z,101771.88
2023-04-14T13:57:14.826Z,101768.56
2023-04-14T13:59:43.392Z,101768.58
2023-04-14T14:02:11.712Z,101764.16
2023-04-14T14:04:42.315Z,101764.70
2023-04-14T14:07:10.965Z,101763.62
2023-04-14T14:09:39.138Z,101763.23
2023-04-14T14:12:11.018Z,101767.60
2023-04-14T14:14:39.280Z,101767.57
2023-04-14T14:17:08.440Z,101771.95
2023-04-14T14:19:37.900Z,101771.74
2023-04-14T14:22:07.698Z,101771.91
2023-04-14T14:26:36.195Z,101762.02
2023-04-14T14:29:05.441Z,101822.35
2023-04-14T14:31:34.918Z,101815.86
2023-04-14T14:34:03.676Z,101813.27
2023-04-14T14:36:33.039Z,101805.85
2023-04-14T14:39:03.694Z,101779.91
2023-04-14T14:41:33.822Z,101762.59
2023-04-14T14:44:02.160Z,101753.27
2023-04-14T14:46:36.931Z,101741.99
2023-04-14T14:49:05.666Z,101731.90
2023-04-14T14:51:34.144Z,101726.89
2023-04-14T14:54:09.791Z,101722.59
2023-04-14T14:56:38.960Z,101720.90
2023-04-14T14:59:08.695Z,101715.50
2023-04-14T15:01:37.394Z,101711.16
2023-04-14T15:04:06.789Z,101707.86
2023-04-14T15:06:36.597Z,101709.27
2023-04-14T15:09:05.906Z,101713.14
2023-04-14T15:11:38.931Z,101719.79
2023-04-14T15:14:07.788Z,101720.81
2023-04-14T15:16:36.150Z,101724.31
2023-04-14T15:19:12.613Z,101729.01
2023-04-14T15:21:43.607Z,101737.40
2023-04-14T15:24:12.099Z,101745.61
2023-04-14T15:26:40.587Z,101754.89
2023-04-14T15:29:09.106Z,101763.14
2023-04-14T15:31:37.784Z,101767.35
2023-04-14T15:34:07.138Z,101775.09
2023-04-14T15:36:36.160Z,101784.59
2023-04-14T15:39:04.417Z,101779.19
2023-04-14T15:41:33.089Z,101778.54
2023-04-14T15:44:02.514Z,101779.45
2023-04-14T15:46:31.947Z,101780.36
2023-04-14T15:49:03.549Z,101781.63
2023-04-14T15:51:32.749Z,101780.42
2023-04-14T15:54:01.590Z,101787.12
2023-04-14T15:56:31.636Z,101791.66
2023-04-14T15:59:02.181Z,101802.54
2023-04-14T16:01:31.089Z,101807.63
2023-04-14T16:04:00.873Z,101814.10
2023-04-14T16:06:30.779Z,101819.54
2023-04-14T16:09:02.983Z,101822.55
2023-04-14T16:11:31.594Z,101822.55
2023-04-14T16:14:03.780Z,101824.85
2023-04-14T16:16:32.848Z,101828.16
2023-04-14T16:19:01.659Z,101832.73
2023-04-14T16:21:34.579Z,101840.44
2023-04-14T16:24:03.982Z,101842.22
2023-04-14T16:26:33.347Z,101844.34
2023-04-14T16:29:02.911Z,101849.23
2023-04-14T16:31:33.249Z,101852.05
2023-04-14T16:34:02.145Z,101852.77
2023-04-14T16:36:32.212Z,101856.27
2023-04-14T16:39:01.938Z,101862.77
2023-04-14T16:41:30.724Z,101868.90
2023-04-14T16:44:00.551Z,101873.47
2023-04-14T16:46:30.049Z,101880.14
2023-04-14T16:48:59.131Z,101885.23
2023-04-14T16:51:35.063Z,101892.26
2023-04-14T16:54:04.853Z,101893.48
2023-04-14T16:56:36.942Z,101893.31
2023-04-14T16:59:07.930Z,101898.23
2023-04-14T17:01:36.614Z,101901.39
2023-04-14T17:04:05.724Z,101903.33
2023-04-14T17:06:37.073Z,101904.75
2023-04-14T17:09:07.070Z,101903.70
2023-04-14T17:11:35.525Z,101907.73
2023-04-14T17:14:04.068Z,101905.80
2023-04-14T17:16:35.689Z,101911.97
2023-04-14T17:19:04.671Z,101914.59
2023-04-14T17:21:33.568Z,101915.81
2023-04-14T17:24:06.004Z,101914.42
2023-04-14T17:26:35.241Z,101910.23
2023-04-14T17:29:04.403Z,101901.63
2023-04-14T17:31:33.506Z,101893.91
2023-04-14T17:34:02.071Z,101893.55
2023-04-14T17:36:31.035Z,101899.00
2023-04-14T17:39:00.720Z,101893.91
2023-04-14T17:41:29.445Z,101899.17
2023-04-14T17:44:01.059Z,101902.85
2023-04-14T17:46:33.984Z,101908.48
2023-04-14T17:49:04.060Z,101906.38
2023-04-14T17:51:35.782Z,101905.71
2023-04-14T17:54:05.701Z,101903.45
2023-04-14T17:56:37.182Z,101898.22
2023-04-14T17:59:07.112Z,101900.16
2023-04-14T18:01:36.378Z,101891.95
2023-04-14T18:04:05.497Z,101891.96
2023-04-14T18:06:35.262Z,101890.59
2023-04-14T18:09:05.794Z,101886.21
2023-04-14T18:11:39.505Z,101888.49
2023-04-14T18:14:07.963Z,101887.95
2023-04-14T18:16:41.497Z,101885.85
2023-04-14T18:19:12.707Z,101885.15
2023-04-14T18:21:43.228Z,101887.80
2023-04-14T18:26:45.153Z,101891.65
2023-04-14T18:29:13.451Z,101888.84
2023-04-14T18:31:42.888Z,101887.45
2023-04-14T18:34:20.956Z,101886.21
2023-04-14T18:36:52.088Z,101885.34
2023-04-14T18:39:20.916Z,101885.34
2023-04-14T18:41:50.307Z,101879.92
2023-04-14T18:44:18.901Z,101875.36
2023-04-14T18:46:47.261Z,101875.56
2023-04-14T18:49:15.751Z,101874.89
2023-04-14T18:51:45.486Z,101874.38
2023-04-14T18:54:14.891Z,101881.23
2023-04-14T18:56:43.617Z,101876.86
2023-04-14T18:59:12.798Z,101875.45
2023-04-14T19:01:43.118Z,101874.05
2023-04-14T19:04:11.425Z,101871.25
2023-04-14T19:06:43.266Z,101874.41
2023-04-14T19:09:11.913Z,101874.41
2023-04-14T19:11:42.461Z,101874.23
2023-04-14T19:14:13.102Z,101871.97
2023-04-14T19:16:41.326Z,101873.55
2023-04-14T19:19:09.958Z,101868.48
2023-04-14T19:21:39.344Z,101865.88
2023-04-14T19:24:08.598Z,101859.06
2023-04-14T19:26:40.768Z,101858.71
2023-04-14T19:29:12.998Z,101855.74
2023-04-14T19:31:41.758Z,101854.53
2023-04-14T19:34:10.421Z,101852.77
2023-04-14T19:36:40.477Z,101852.62
2023-04-14T19:39:09.550Z,101854.04
2023-04-14T19:41:39.206Z,101852.98
2023-04-14T19:44:08.819Z,101854.39
2023-04-14T19:46:37.468Z,101853.70
2023-04-14T19:49:08.419Z,101851.23
2023-04-14T19:51:37.748Z,101853.35
2023-04-14T19:54:09.268Z,101851.08
2023-04-14T19:56:38.555Z,101852.65
2023-04-14T19:59:08.462Z,101854.23
2023-04-14T20:01:37.286Z,101857.73
2023-04-14T20:04:11.731Z,101862.83
2023-04-14T20:06:41.704Z,101865.09
2023-04-14T20:09:10.496Z,101866.51
2023-04-14T20:11:39.366Z,101864.04
2023-04-14T20:14:07.976Z,101864.77
2023-04-14T20:16:40.890Z,101859.51
2023-04-14T20:19:09.738Z,101853.56
2023-04-14T20:21:38.911Z,101860.92
2023-04-14T20:24:07.369Z,101865.14
2023-04-14T20:26:42.912Z,101867.59
2023-04-14T20:29:16.285Z,101865.48
2023-04-14T20:31:45.218Z,101866.54
2023-04-14T20:34:17.055Z,101864.44
2023-04-14T20:36:46.624Z,101866.73
2023-04-14T20:39:15.329Z,101867.95
2023-04-14T20:41:46.718Z,101865.35
2023-04-14T20:44:16.231Z,101869.20
2023-04-14T20:46:44.488Z,101867.28
2023-04-14T20:49:13.552Z,101873.23
2023-04-14T20:51:42.682Z,101876.40
2023-04-14T20:54:11.232Z,101878.67
2023-04-14T20:56:40.310Z,101878.16
2023-04-14T20:59:10.484Z,101877.42
2023-04-14T21:01:39.049Z,101880.23
2023-04-14T21:04:07.300Z,101874.28
2023-04-14T21:06:38.930Z,101875.70
2023-04-14T21:09:07.458Z,101877.96
2023-04-14T21:11:37.300Z,101880.60
2023-04-14T21:15:40.375Z,101883.05
2023-04-14T21:16:56.371Z,101887.60
2023-04-14T21:19:27.408Z,101884.98
2023-04-14T21:21:56.049Z,101877.10
2023-04-14T21:24:25.316Z,101877.98
2023-04-14T21:26:54.138Z,101876.22
2023-04-14T21:29:23.690Z,101875.35
2023-04-14T21:31:53.935Z,101873.59
2023-04-14T21:34:22.233Z,101877.98
2023-04-14T21:36:51.423Z,101874.14
2023-04-14T21:39:20.636Z,101877.81
2023-04-14T21:41:49.506Z,101874.83
2023-04-14T21:44:18.899Z,101871.50
2023-04-14T21:46:47.157Z,101871.67
2023-04-14T21:49:17.285Z,101874.14
2023-04-14T21:51:45.573Z,101876.94
2023-04-14T21:54:15.037Z,101878.17
2023-04-14T21:56:43.492Z,101879.75
2023-04-14T21:59:11.730Z,101880.80
2023-04-14T22:01:41.380Z,101877.84
2023-04-14T22:04:14.538Z,101877.15
2023-04-14T22:06:48.098Z,101871.71
2023-04-14T22:09:17.068Z,101873.29
2023-04-14T22:11:45.941Z,101866.62
2023-04-14T22:14:14.184Z,101864.52
2023-04-14T22:16:45.215Z,101871.34
2023-04-14T22:19:14.800Z,101868.02
2023-04-14T22:21:43.800Z,101873.44
2023-04-14T22:24:12.849Z,101867.14
2023-04-14T22:26:42.323Z,101870.47
2023-04-14T22:29:11.673Z,101869.42
2023-04-14T22:31:40.496Z,101872.39
2023-04-14T22:34:10.432Z,101868.55
2023-04-14T22:36:38.792Z,101868.20
2023-04-14T22:39:07.555Z,101865.23
2023-04-14T22:41:37.457Z,101863.13
2023-04-14T22:44:06.927Z,101865.75
2023-04-14T22:46:35.671Z,101862.95
2023-04-14T22:49:04.588Z,101863.31
2023-04-14T22:51:33.535Z,101865.21
2023-04-14T22:54:04.936Z,101868.39
2023-04-14T22:56:33.567Z,101871.20
2023-04-14T22:59:02.614Z,101873.64
2023-04-14T23:01:31.730Z,101874.70
2023-04-14T23:04:00.602Z,101876.09
2023-04-14T23:06:29.304Z,101876.11
2023-04-14T23:08:59.898Z,101872.27
2023-04-14T23:11:30.548Z,101872.08
2023-04-14T23:13:58.735Z,101869.98
2023-04-14T23:16:29.059Z,101867.36
2023-04-14T23:19:07.304Z,101865.59
2023-04-14T23:21:35.640Z,101867.70
2023-04-14T23:24:04.354Z,101870.50
2023-04-14T23:26:43.238Z,101876.81
2023-04-14T23:29:12.457Z,101876.11
2023-04-14T23:31:40.848Z,101880.84
2023-04-14T23:34:12.933Z,101879.96
2023-04-14T23:36:41.934Z,101884.51
2023-04-14T23:39:10.545Z,101888.19
2023-04-14T23:41:41.993Z,101889.41
2023-04-14T23:44:10.690Z,101889.23
2023-04-14T23:46:39.925Z,101888.89
2023-04-14T23:49:24.539Z,101890.29
2023-04-14T23:51:57.078Z,101888.54
2023-04-14T23:54:26.210Z,101889.94
2023-04-14T23:56:55.073Z,101889.95
2023-04-14T23:59:24.099Z,101887.31
